sensor_id;sensor_type;location;lat;lon;timestamp;P1;durP1;ratioP1;P2;durP2;ratioP2
55013;SDS011;40916;51.632;5.552;2023-02-04T00:04:27;4.2;;;26.6;;
55013;SDS011;40916;51.632;5.552;2023-02-04T00:09:27;3.6;;;25.3;;
55013;SDS011;40916;51.632;5.552;2023-02-04T00:14:27;4.3;;;25.2;;
55013;SDS011;40916;51.632;5.552;2023-02-04T00:19:27;3.7;;;21.2;;
55013;SDS011;40916;51.632;5.552;2023-02-04T00:24:27;6.5;;;36.9;;
55013;SDS011;40916;51.632;5.552;2023-02-04T00:29:27;4;;;27.7;;
55013;SDS011;40916;51.632;5.552;2023-02-04T00:34:27;4.4;;;24.7;;
55013;SDS011;40916;51.632;5.552;2023-02-04T00:39:27;3.2;;;23.4;;
55013;SDS011;40916;51.632;5.552;2023-02-04T00:44:27;4;;;26.7;;
55013;SDS011;40916;51.632;5.552;2023-02-04T00:49:27;3.1;;;19.1;;
55013;SDS011;40916;51.632;5.552;2023-02-04T00:54:27;4.2;;;29.3;;
55013;SDS011;40916;51.632;5.552;2023-02-04T00:59:27;4.1;;;28.1;;
55013;SDS011;40916;51.632;5.552;2023-02-04T01:04:27;4;;;26.5;;
55013;SDS011;40916;51.632;5.552;2023-02-04T01:09:27;3.7;;;19.3;;
55013;SDS011;40916;51.632;5.552;2023-02-04T01:14:27;4.9;;;33.8;;
55013;SDS011;40916;51.632;5.552;2023-02-04T01:19:27;3.3;;;24.7;;
55013;SDS011;40916;51.632;5.552;2023-02-04T01:24:27;3.4;;;20.6;;
55013;SDS011;40916;51.632;5.552;2023-02-04T01:29:27;5;;;31.9;;
55013;SDS011;40916;51.632;5.552;2023-02-04T01:34:27;5.2;;;26.9;;
55013;SDS011;40916;51.632;5.552;2023-02-04T01:39:27;3.4;;;18.8;;
55013;SDS011;40916;51.632;5.552;2023-02-04T01:44:27;4.4;;;27;;
55013;SDS011;40916;51.632;5.552;2023-02-04T01:49:27;3.6;;;22;;
55013;SDS011;40916;51.632;5.552;2023-02-04T01:54:27;5.1;;;22.3;;
55013;SDS011;40916;51.632;5.552;2023-02-04T01:59:27;4.8;;;30.7;;
55013;SDS011;40916;51.632;5.552;2023-02-04T02:04:28;4.7;;;27.6;;
55013;SDS011;40916;51.632;5.552;2023-02-04T02:09:27;4.7;;;33.4;;
55013;SDS011;40916;51.632;5.552;2023-02-04T02:14:27;4;;;27.2;;
55013;SDS011;40916;51.632;5.552;2023-02-04T02:19:29;4.7;;;21.8;;
55013;SDS011;40916;51.632;5.552;2023-02-04T02:24:28;4.7;;;35.5;;
55013;SDS011;40916;51.632;5.552;2023-02-04T02:29:27;5.1;;;26.9;;
55013;SDS011;40916;51.632;5.552;2023-02-04T02:34:27;4.6;;;30.5;;
55013;SDS011;40916;51.632;5.552;2023-02-04T02:39:27;5;;;28.4;;
55013;SDS011;40916;51.632;5.552;2023-02-04T02:44:27;6.1;;;26.2;;
55013;SDS011;40916;51.632;5.552;2023-02-04T02:49:27;6.4;;;35.7;;
55013;SDS011;40916;51.632;5.552;2023-02-04T02:54:28;6.7;;;43.2;;
55013;SDS011;40916;51.632;5.552;2023-02-04T02:59:27;6.6;;;44.1;;
55013;SDS011;40916;51.632;5.552;2023-02-04T03:04:27;5.3;;;42.8;;
55013;SDS011;40916;51.632;5.552;2023-02-04T03:09:27;7;;;31.9;;
55013;SDS011;40916;51.632;5.552;2023-02-04T03:14:27;7.2;;;37.4;;
55013;SDS011;40916;51.632;5.552;2023-02-04T03:19:27;5.5;;;33;;
55013;SDS011;40916;51.632;5.552;2023-02-04T03:24:27;6.5;;;41.2;;
55013;SDS011;40916;51.632;5.552;2023-02-04T03:29:27;5.9;;;42.3;;
55013;SDS011;40916;51.632;5.552;2023-02-04T03:34:27;6.9;;;47.4;;
55013;SDS011;40916;51.632;5.552;2023-02-04T03:39:27;7.9;;;52.6;;
55013;SDS011;40916;51.632;5.552;2023-02-04T03:44:27;6.8;;;39.4;;
55013;SDS011;40916;51.632;5.552;2023-02-04T03:49:27;7.2;;;42.3;;
55013;SDS011;40916;51.632;5.552;2023-02-04T03:54:27;7.4;;;40.1;;
55013;SDS011;40916;51.632;5.552;2023-02-04T03:59:27;7;;;42.4;;
55013;SDS011;40916;51.632;5.552;2023-02-04T04:04:27;7.6;;;46.6;;
55013;SDS011;40916;51.632;5.552;2023-02-04T04:09:27;7.2;;;38;;
55013;SDS011;40916;51.632;5.552;2023-02-04T04:14:27;7.4;;;41.4;;
55013;SDS011;40916;51.632;5.552;2023-02-04T04:19:27;6.7;;;39.6;;
55013;SDS011;40916;51.632;5.552;2023-02-04T04:24:27;6.4;;;26.1;;
55013;SDS011;40916;51.632;5.552;2023-02-04T04:29:27;7.8;;;34.7;;
55013;SDS011;40916;51.632;5.552;2023-02-04T04:34:27;6.5;;;41.6;;
55013;SDS011;40916;51.632;5.552;2023-02-04T04:39:27;7.2;;;32.6;;
55013;SDS011;40916;51.632;5.552;2023-02-04T04:44:27;7.1;;;39;;
55013;SDS011;40916;51.632;5.552;2023-02-04T04:49:27;8.1;;;51.4;;
55013;SDS011;40916;51.632;5.552;2023-02-04T04:54:27;7.3;;;38.3;;
55013;SDS011;40916;51.632;5.552;2023-02-04T04:59:27;7.2;;;37.9;;
55013;SDS011;40916;51.632;5.552;2023-02-04T05:04:28;6;;;28.1;;
55013;SDS011;40916;51.632;5.552;2023-02-04T05:09:27;7.5;;;34.1;;
55013;SDS011;40916;51.632;5.552;2023-02-04T05:14:27;8.3;;;35.3;;
55013;SDS011;40916;51.632;5.552;2023-02-04T05:19:27;7.5;;;38.6;;
55013;SDS011;40916;51.632;5.552;2023-02-04T05:24:27;8.7;;;31.4;;
55013;SDS011;40916;51.632;5.552;2023-02-04T05:29:27;6.3;;;37.5;;
55013;SDS011;40916;51.632;5.552;2023-02-04T05:34:27;7.1;;;35.4;;
55013;SDS011;40916;51.632;5.552;2023-02-04T05:39:27;7.8;;;38.8;;
55013;SDS011;40916;51.632;5.552;2023-02-04T05:44:27;7.7;;;35.4;;
55013;SDS011;40916;51.632;5.552;2023-02-04T05:49:27;7.8;;;39.7;;
55013;SDS011;40916;51.632;5.552;2023-02-04T05:54:27;8.6;;;49.6;;
55013;SDS011;40916;51.632;5.552;2023-02-04T05:59:27;8.7;;;45.4;;
55013;SDS011;40916;51.632;5.552;2023-02-04T06:04:27;10.1;;;36.2;;
55013;SDS011;40916;51.632;5.552;2023-02-04T06:09:27;11;;;52.4;;
55013;SDS011;40916;51.632;5.552;2023-02-04T06:14:27;10.7;;;43.7;;
55013;SDS011;40916;51.632;5.552;2023-02-04T06:19:27;10.5;;;90.4;;
55013;SDS011;40916;51.632;5.552;2023-02-04T06:24:27;10.8;;;107.7;;
55013;SDS011;40916;51.632;5.552;2023-02-04T06:29:27;9.8;;;85;;
55013;SDS011;40916;51.632;5.552;2023-02-04T06:34:27;10.8;;;48.9;;
55013;SDS011;40916;51.632;5.552;2023-02-04T06:39:27;12.7;;;104.6;;
55013;SDS011;40916;51.632;5.552;2023-02-04T06:44:27;10.1;;;79.6;;
55013;SDS011;40916;51.632;5.552;2023-02-04T06:49:27;11.5;;;48.7;;
55013;SDS011;40916;51.632;5.552;2023-02-04T06:54:27;11.5;;;66.7;;
55013;SDS011;40916;51.632;5.552;2023-02-04T06:59:27;10.3;;;35.7;;
55013;SDS011;40916;51.632;5.552;2023-02-04T07:04:27;10.8;;;51.7;;
55013;SDS011;40916;51.632;5.552;2023-02-04T07:09:27;11.7;;;34.9;;
55013;SDS011;40916;51.632;5.552;2023-02-04T07:14:27;12.6;;;34.6;;
55013;SDS011;40916;51.632;5.552;2023-02-04T07:19:27;11.2;;;42.1;;
55013;SDS011;40916;51.632;5.552;2023-02-04T07:24:27;11.3;;;34.9;;
55013;SDS011;40916;51.632;5.552;2023-02-04T07:29:27;13.1;;;41;;
55013;SDS011;40916;51.632;5.552;2023-02-04T07:34:27;12;;;36.2;;
55013;SDS011;40916;51.632;5.552;2023-02-04T07:39:27;14;;;41.8;;
55013;SDS011;40916;51.632;5.552;2023-02-04T07:44:27;15;;;44.9;;
55013;SDS011;40916;51.632;5.552;2023-02-04T07:49:27;15.1;;;46.5;;
55013;SDS011;40916;51.632;5.552;2023-02-04T07:54:27;14.6;;;40.7;;
55013;SDS011;40916;51.632;5.552;2023-02-04T07:59:27;15.9;;;43.4;;
55013;SDS011;40916;51.632;5.552;2023-02-04T08:04:28;14.8;;;48.9;;
55013;SDS011;40916;51.632;5.552;2023-02-04T08:09:27;15.1;;;42.8;;
55013;SDS011;40916;51.632;5.552;2023-02-04T08:14:27;13.9;;;39.7;;
55013;SDS011;40916;51.632;5.552;2023-02-04T08:19:27;14.5;;;41.8;;
55013;SDS011;40916;51.632;5.552;2023-02-04T08:24:27;13.8;;;34.9;;
55013;SDS011;40916;51.632;5.552;2023-02-04T08:29:27;14.7;;;36.7;;
55013;SDS011;40916;51.632;5.552;2023-02-04T08:34:27;13.3;;;40.9;;
55013;SDS011;40916;51.632;5.552;2023-02-04T08:39:27;12.4;;;40.7;;
55013;SDS011;40916;51.632;5.552;2023-02-04T08:44:26;12.3;;;36.1;;
55013;SDS011;40916;51.632;5.552;2023-02-04T08:49:27;12.5;;;34.3;;
55013;SDS011;40916;51.632;5.552;2023-02-04T08:54:28;13.7;;;37.2;;
55013;SDS011;40916;51.632;5.552;2023-02-04T08:59:27;15.7;;;47.6;;
55013;SDS011;40916;51.632;5.552;2023-02-04T09:04:27;17;;;48.1;;
55013;SDS011;40916;51.632;5.552;2023-02-04T09:09:27;17.2;;;52.2;;
55013;SDS011;40916;51.632;5.552;2023-02-04T09:14:26;18.1;;;61;;
55013;SDS011;40916;51.632;5.552;2023-02-04T09:19:27;16.7;;;62.7;;
55013;SDS011;40916;51.632;5.552;2023-02-04T09:24:27;17.2;;;52.3;;
55013;SDS011;40916;51.632;5.552;2023-02-04T09:29:27;17.5;;;58.5;;
55013;SDS011;40916;51.632;5.552;2023-02-04T09:34:28;17.8;;;60.5;;
55013;SDS011;40916;51.632;5.552;2023-02-04T09:39:27;18.6;;;56.6;;
55013;SDS011;40916;51.632;5.552;2023-02-04T09:44:27;19.1;;;55.7;;
55013;SDS011;40916;51.632;5.552;2023-02-04T09:49:27;16.8;;;59.4;;
55013;SDS011;40916;51.632;5.552;2023-02-04T09:54:27;16.9;;;60.4;;
55013;SDS011;40916;51.632;5.552;2023-02-04T09:59:27;15.4;;;54;;
55013;SDS011;40916;51.632;5.552;2023-02-04T10:04:26;16.8;;;51.3;;
55013;SDS011;40916;51.632;5.552;2023-02-04T10:09:26;16.6;;;52.1;;
55013;SDS011;40916;51.632;5.552;2023-02-04T10:14:27;13.8;;;46.9;;
55013;SDS011;40916;51.632;5.552;2023-02-04T10:19:27;14;;;53.1;;
55013;SDS011;40916;51.632;5.552;2023-02-04T10:24:28;13.3;;;48.8;;
55013;SDS011;40916;51.632;5.552;2023-02-04T10:29:26;14.2;;;49.2;;
55013;SDS011;40916;51.632;5.552;2023-02-04T10:34:31;12.2;;;52.5;;
55013;SDS011;40916;51.632;5.552;2023-02-04T10:39:27;12.4;;;47.7;;
55013;SDS011;40916;51.632;5.552;2023-02-04T10:44:27;11.1;;;40.8;;
55013;SDS011;40916;51.632;5.552;2023-02-04T10:49:26;12.3;;;45.2;;
55013;SDS011;40916;51.632;5.552;2023-02-04T10:54:28;11.1;;;50.9;;
55013;SDS011;40916;51.632;5.552;2023-02-04T10:59:26;9.6;;;35;;
55013;SDS011;40916;51.632;5.552;2023-02-04T11:04:26;7.3;;;31.5;;
55013;SDS011;40916;51.632;5.552;2023-02-04T11:09:26;9.3;;;43.5;;
55013;SDS011;40916;51.632;5.552;2023-02-04T11:14:27;9.5;;;49.9;;
55013;SDS011;40916;51.632;5.552;2023-02-04T11:19:31;8.2;;;36.7;;
55013;SDS011;40916;51.632;5.552;2023-02-04T11:24:26;10.2;;;42.8;;
55013;SDS011;40916;51.632;5.552;2023-02-04T11:29:27;9.5;;;38.7;;
55013;SDS011;40916;51.632;5.552;2023-02-04T11:34:28;8.7;;;41.9;;
55013;SDS011;40916;51.632;5.552;2023-02-04T11:39:27;8.6;;;40.8;;
55013;SDS011;40916;51.632;5.552;2023-02-04T11:44:26;8.4;;;41.1;;
55013;SDS011;40916;51.632;5.552;2023-02-04T11:49:26;6.6;;;40.6;;
55013;SDS011;40916;51.632;5.552;2023-02-04T11:54:26;8.7;;;35.7;;
55013;SDS011;40916;51.632;5.552;2023-02-04T11:59:26;7.6;;;39.7;;
55013;SDS011;40916;51.632;5.552;2023-02-04T12:04:27;5.9;;;30.5;;
55013;SDS011;40916;51.632;5.552;2023-02-04T12:09:27;6.7;;;40.8;;
55013;SDS011;40916;51.632;5.552;2023-02-04T12:14:27;5.7;;;31.6;;
55013;SDS011;40916;51.632;5.552;2023-02-04T12:19:26;7;;;29.4;;
55013;SDS011;40916;51.632;5.552;2023-02-04T12:24:26;5.8;;;29.2;;
55013;SDS011;40916;51.632;5.552;2023-02-04T12:29:26;6.1;;;36;;
55013;SDS011;40916;51.632;5.552;2023-02-04T12:34:26;7.9;;;40.1;;
55013;SDS011;40916;51.632;5.552;2023-02-04T12:39:26;5;;;22.5;;
55013;SDS011;40916;51.632;5.552;2023-02-04T12:44:26;4.8;;;31.9;;
55013;SDS011;40916;51.632;5.552;2023-02-04T12:49:26;5.6;;;27.3;;
55013;SDS011;40916;51.632;5.552;2023-02-04T12:54:26;5.9;;;31.4;;
55013;SDS011;40916;51.632;5.552;2023-02-04T12:59:26;5.6;;;28.2;;
55013;SDS011;40916;51.632;5.552;2023-02-04T13:04:26;6;;;29.6;;
55013;SDS011;40916;51.632;5.552;2023-02-04T13:09:26;5.8;;;28.2;;
55013;SDS011;40916;51.632;5.552;2023-02-04T13:14:26;4.8;;;27.4;;
55013;SDS011;40916;51.632;5.552;2023-02-04T13:19:26;5.6;;;22.5;;
55013;SDS011;40916;51.632;5.552;2023-02-04T13:24:26;5.4;;;34.2;;
55013;SDS011;40916;51.632;5.552;2023-02-04T13:29:26;5.5;;;38.7;;
55013;SDS011;40916;51.632;5.552;2023-02-04T13:34:26;5.5;;;29.8;;
55013;SDS011;40916;51.632;5.552;2023-02-04T13:39:26;5.5;;;31.3;;
55013;SDS011;40916;51.632;5.552;2023-02-04T13:44:26;5.6;;;31.6;;
55013;SDS011;40916;51.632;5.552;2023-02-04T13:49:26;5.3;;;32.3;;
55013;SDS011;40916;51.632;5.552;2023-02-04T13:54:26;4.9;;;24.9;;
55013;SDS011;40916;51.632;5.552;2023-02-04T13:59:26;4.5;;;25.5;;
55013;SDS011;40916;51.632;5.552;2023-02-04T14:04:26;4.7;;;31.1;;
55013;SDS011;40916;51.632;5.552;2023-02-04T14:09:26;4.1;;;25.3;;
55013;SDS011;40916;51.632;5.552;2023-02-04T14:14:26;5.5;;;28.2;;
55013;SDS011;40916;51.632;5.552;2023-02-04T14:19:26;5.2;;;26.2;;
55013;SDS011;40916;51.632;5.552;2023-02-04T14:24:26;4.7;;;27.2;;
55013;SDS011;40916;51.632;5.552;2023-02-04T14:29:26;4.5;;;29.1;;
55013;SDS011;40916;51.632;5.552;2023-02-04T14:34:26;5;;;30.5;;
55013;SDS011;40916;51.632;5.552;2023-02-04T14:39:26;4.6;;;28.9;;
55013;SDS011;40916;51.632;5.552;2023-02-04T14:44:26;6.1;;;37.6;;
55013;SDS011;40916;51.632;5.552;2023-02-04T14:49:26;5.8;;;27;;
55013;SDS011;40916;51.632;5.552;2023-02-04T14:54:26;6.2;;;34.7;;
55013;SDS011;40916;51.632;5.552;2023-02-04T14:59:26;6.1;;;34.5;;
55013;SDS011;40916;51.632;5.552;2023-02-04T15:04:26;6.8;;;33.7;;
55013;SDS011;40916;51.632;5.552;2023-02-04T15:09:26;6.3;;;36.1;;
55013;SDS011;40916;51.632;5.552;2023-02-04T15:14:26;7.1;;;36.8;;
55013;SDS011;40916;51.632;5.552;2023-02-04T15:19:26;6;;;33.2;;
55013;SDS011;40916;51.632;5.552;2023-02-04T15:24:26;7.5;;;37.4;;
55013;SDS011;40916;51.632;5.552;2023-02-04T15:29:26;7.4;;;30.8;;
55013;SDS011;40916;51.632;5.552;2023-02-04T15:34:26;6.2;;;31.7;;
55013;SDS011;40916;51.632;5.552;2023-02-04T15:39:26;6.7;;;30.4;;
55013;SDS011;40916;51.632;5.552;2023-02-04T15:44:26;6.4;;;28.6;;
55013;SDS011;40916;51.632;5.552;2023-02-04T15:49:26;7;;;30.3;;
55013;SDS011;40916;51.632;5.552;2023-02-04T15:54:26;15;;;51.4;;
55013;SDS011;40916;51.632;5.552;2023-02-04T15:59:26;7;;;31.2;;
55013;SDS011;40916;51.632;5.552;2023-02-04T16:04:26;6.5;;;33.3;;
55013;SDS011;40916;51.632;5.552;2023-02-04T16:09:26;6.3;;;28.7;;
55013;SDS011;40916;51.632;5.552;2023-02-04T16:14:26;7;;;37;;
55013;SDS011;40916;51.632;5.552;2023-02-04T16:19:26;7.2;;;37.1;;
55013;SDS011;40916;51.632;5.552;2023-02-04T16:24:26;9.3;;;39.7;;
55013;SDS011;40916;51.632;5.552;2023-02-04T16:29:26;8.8;;;33.8;;
55013;SDS011;40916;51.632;5.552;2023-02-04T16:34:26;9.5;;;44.9;;
55013;SDS011;40916;51.632;5.552;2023-02-04T16:39:27;10.6;;;44.4;;
55013;SDS011;40916;51.632;5.552;2023-02-04T16:44:26;10.4;;;40.1;;
55013;SDS011;40916;51.632;5.552;2023-02-04T16:49:26;9.1;;;38.9;;
55013;SDS011;40916;51.632;5.552;2023-02-04T16:54:26;7.2;;;36;;
55013;SDS011;40916;51.632;5.552;2023-02-04T16:59:26;7.2;;;41.3;;
55013;SDS011;40916;51.632;5.552;2023-02-04T17:04:26;9.8;;;36.5;;
55013;SDS011;40916;51.632;5.552;2023-02-04T17:09:26;10.7;;;42.9;;
55013;SDS011;40916;51.632;5.552;2023-02-04T17:14:26;8.5;;;32.6;;
55013;SDS011;40916;51.632;5.552;2023-02-04T17:19:26;8.9;;;38.7;;
55013;SDS011;40916;51.632;5.552;2023-02-04T17:24:26;7;;;37.2;;
55013;SDS011;40916;51.632;5.552;2023-02-04T17:29:26;8.3;;;35.3;;
55013;SDS011;40916;51.632;5.552;2023-02-04T17:34:26;9.5;;;38.5;;
55013;SDS011;40916;51.632;5.552;2023-02-04T17:39:26;8.7;;;38.1;;
55013;SDS011;40916;51.632;5.552;2023-02-04T17:44:26;9.8;;;35.2;;
55013;SDS011;40916;51.632;5.552;2023-02-04T17:49:26;8.2;;;39.8;;
55013;SDS011;40916;51.632;5.552;2023-02-04T17:54:26;7.2;;;34.7;;
55013;SDS011;40916;51.632;5.552;2023-02-04T17:59:26;6.2;;;29.9;;
55013;SDS011;40916;51.632;5.552;2023-02-04T18:04:26;8.2;;;39.1;;
55013;SDS011;40916;51.632;5.552;2023-02-04T18:09:26;10.3;;;44.5;;
55013;SDS011;40916;51.632;5.552;2023-02-04T18:14:26;9.4;;;39.2;;
55013;SDS011;40916;51.632;5.552;2023-02-04T18:19:28;7.8;;;29.4;;
55013;SDS011;40916;51.632;5.552;2023-02-04T18:24:27;8.1;;;32.4;;
55013;SDS011;40916;51.632;5.552;2023-02-04T18:29:28;8.5;;;34.8;;
55013;SDS011;40916;51.632;5.552;2023-02-04T18:34:27;10.2;;;38.5;;
55013;SDS011;40916;51.632;5.552;2023-02-04T18:39:26;9.8;;;42.3;;
55013;SDS011;40916;51.632;5.552;2023-02-04T18:44:28;11.6;;;39.7;;
55013;SDS011;40916;51.632;5.552;2023-02-04T18:49:26;12.3;;;36.2;;
55013;SDS011;40916;51.632;5.552;2023-02-04T18:54:34;13;;;37.7;;
55013;SDS011;40916;51.632;5.552;2023-02-04T18:59:26;13.2;;;38.3;;
55013;SDS011;40916;51.632;5.552;2023-02-04T19:04:28;15.4;;;40.4;;
55013;SDS011;40916;51.632;5.552;2023-02-04T19:09:27;15.4;;;46.4;;
55013;SDS011;40916;51.632;5.552;2023-02-04T19:14:30;14.2;;;43.2;;
55013;SDS011;40916;51.632;5.552;2023-02-04T19:19:34;12.2;;;46.1;;
55013;SDS011;40916;51.632;5.552;2023-02-04T19:24:26;12.5;;;40.3;;
55013;SDS011;40916;51.632;5.552;2023-02-04T19:29:32;13.6;;;53.5;;
55013;SDS011;40916;51.632;5.552;2023-02-04T19:34:28;12;;;45.2;;
55013;SDS011;40916;51.632;5.552;2023-02-04T19:39:27;13.4;;;46.6;;
55013;SDS011;40916;51.632;5.552;2023-02-04T19:44:28;11.7;;;43.2;;
55013;SDS011;40916;51.632;5.552;2023-02-04T19:49:27;11.5;;;43.4;;
55013;SDS011;40916;51.632;5.552;2023-02-04T19:54:32;11;;;37.9;;
55013;SDS011;40916;51.632;5.552;2023-02-04T19:59:26;11.5;;;45.6;;
55013;SDS011;40916;51.632;5.552;2023-02-04T20:04:26;9.6;;;37.4;;
55013;SDS011;40916;51.632;5.552;2023-02-04T20:09:29;12;;;45.6;;
55013;SDS011;40916;51.632;5.552;2023-02-04T20:14:40;10.3;;;30.8;;
55013;SDS011;40916;51.632;5.552;2023-02-04T20:19:27;11;;;34.3;;
55013;SDS011;40916;51.632;5.552;2023-02-04T20:24:29;11.9;;;45.9;;
55013;SDS011;40916;51.632;5.552;2023-02-04T20:29:26;11.5;;;41.4;;
55013;SDS011;40916;51.632;5.552;2023-02-04T20:34:27;13;;;39.5;;
55013;SDS011;40916;51.632;5.552;2023-02-04T20:39:28;20.3;;;59.2;;
55013;SDS011;40916;51.632;5.552;2023-02-04T20:44:27;17.1;;;49.2;;
55013;SDS011;40916;51.632;5.552;2023-02-04T20:49:26;14;;;44.4;;
55013;SDS011;40916;51.632;5.552;2023-02-04T20:54:26;14.5;;;54.9;;
55013;SDS011;40916;51.632;5.552;2023-02-04T20:59:28;14.4;;;42.9;;
55013;SDS011;40916;51.632;5.552;2023-02-04T21:04:28;16.6;;;59.3;;
55013;SDS011;40916;51.632;5.552;2023-02-04T21:09:26;18.1;;;49.1;;
55013;SDS011;40916;51.632;5.552;2023-02-04T21:14:27;16;;;54.9;;
55013;SDS011;40916;51.632;5.552;2023-02-04T21:19:27;14.6;;;43.5;;
55013;SDS011;40916;51.632;5.552;2023-02-04T21:24:26;17.8;;;55.4;;
55013;SDS011;40916;51.632;5.552;2023-02-04T21:29:26;16.7;;;55.4;;
55013;SDS011;40916;51.632;5.552;2023-02-04T21:34:26;18.5;;;59.2;;
55013;SDS011;40916;51.632;5.552;2023-02-04T21:39:26;19.7;;;50.9;;
55013;SDS011;40916;51.632;5.552;2023-02-04T21:44:26;20.3;;;52.2;;
55013;SDS011;40916;51.632;5.552;2023-02-04T21:49:26;21.9;;;68;;
55013;SDS011;40916;51.632;5.552;2023-02-04T21:54:25;20.4;;;57.2;;
55013;SDS011;40916;51.632;5.552;2023-02-04T21:59:26;23.7;;;60.5;;
55013;SDS011;40916;51.632;5.552;2023-02-04T22:04:26;20.7;;;54.1;;
55013;SDS011;40916;51.632;5.552;2023-02-04T22:09:27;24.3;;;65.5;;
55013;SDS011;40916;51.632;5.552;2023-02-04T22:14:26;19.3;;;48.1;;
55013;SDS011;40916;51.632;5.552;2023-02-04T22:19:26;17.9;;;44.3;;
55013;SDS011;40916;51.632;5.552;2023-02-04T22:24:26;19.6;;;45.3;;
55013;SDS011;40916;51.632;5.552;2023-02-04T22:29:26;19.4;;;52.6;;
55013;SDS011;40916;51.632;5.552;2023-02-04T22:34:25;19.9;;;52.2;;
55013;SDS011;40916;51.632;5.552;2023-02-04T22:39:26;18.7;;;47.1;;
55013;SDS011;40916;51.632;5.552;2023-02-04T22:44:26;18.7;;;65.5;;
55013;SDS011;40916;51.632;5.552;2023-02-04T22:49:25;19.3;;;50.1;;
55013;SDS011;40916;51.632;5.552;2023-02-04T22:54:25;18.2;;;61.8;;
55013;SDS011;40916;51.632;5.552;2023-02-04T22:59:26;18.5;;;56.9;;
55013;SDS011;40916;51.632;5.552;2023-02-04T23:04:25;17.3;;;51.3;;
55013;SDS011;40916;51.632;5.552;2023-02-04T23:09:25;16.3;;;46.6;;
55013;SDS011;40916;51.632;5.552;2023-02-04T23:14:25;16.2;;;42;;
55013;SDS011;40916;51.632;5.552;2023-02-04T23:19:26;15.7;;;46.1;;
55013;SDS011;40916;51.632;5.552;2023-02-04T23:24:25;16.4;;;44.2;;
55013;SDS011;40916;51.632;5.552;2023-02-04T23:29:26;19;;;48.9;;
55013;SDS011;40916;51.632;5.552;2023-02-04T23:34:25;17.1;;;46.4;;
55013;SDS011;40916;51.632;5.552;2023-02-04T23:39:26;17.2;;;43.1;;
55013;SDS011;40916;51.632;5.552;2023-02-04T23:44:25;17.6;;;44.8;;
55013;SDS011;40916;51.632;5.552;2023-02-04T23:49:25;16.7;;;44.9;;
55013;SDS011;40916;51.632;5.552;2023-02-04T23:54:25;19;;;50;;
55013;SDS011;40916;51.632;5.552;2023-02-04T23:59:25;20.6;;;48.7;;
